createdAt,value
2017-07-16T17:31:32.185Z,27.10
2017-07-16T17:33:59.604Z,27.10
2017-07-16T17:36:27.043Z,27.10
2017-07-16T17:38:54.453Z,27.10
2017-07-16T17:41:21.881Z,27.10
2017-07-16T17:43:49.302Z,27.10
2017-07-16T17:46:16.857Z,27.10
2017-07-16T17:48:44.286Z,27.10
2017-07-16T17:51:11.716Z,27.00
2017-07-16T17:53:39.900Z,26.80
2017-07-16T17:56:07.333Z,26.80
2017-07-16T17:58:34.758Z,26.70
2017-07-16T18:01:02.946Z,26.80
2017-07-16T18:03:30.375Z,26.80
2017-07-16T18:05:57.826Z,26.70
2017-07-16T18:08:25.236Z,26.70
2017-07-16T18:10:52.657Z,26.60
2017-07-16T18:13:20.149Z,26.60
2017-07-16T18:15:47.568Z,26.40
2017-07-16T18:18:15.003Z,26.30
2017-07-16T18:20:42.421Z,26.20
2017-07-16T18:23:10.617Z,26.00
2017-07-16T18:25:38.041Z,26.00
2017-07-16T18:28:05.623Z,25.90
2017-07-16T18:30:33.001Z,25.80
2017-07-16T18:33:00.441Z,25.70
2017-07-16T18:35:27.861Z,25.70
2017-07-16T18:37:55.301Z,25.70
2017-07-16T18:40:22.728Z,25.70
2017-07-16T18:42:50.161Z,25.70
2017-07-16T18:45:17.581Z,25.80
2017-07-16T18:47:45.149Z,25.70
2017-07-16T18:50:12.565Z,25.70
2017-07-16T18:52:39.993Z,25.60
2017-07-16T18:55:07.429Z,25.50
2017-07-16T18:57:35.618Z,25.50
2017-07-16T19:00:03.048Z,25.50
2017-07-16T19:02:30.471Z,25.50
2017-07-16T19:04:57.903Z,25.50
2017-07-16T19:07:25.331Z,25.50
2017-07-16T19:09:53.535Z,25.40
2017-07-16T19:12:20.958Z,25.40
2017-07-16T19:14:48.389Z,25.30
2017-07-16T19:17:15.817Z,25.20
2017-07-16T19:19:43.254Z,25.10
2017-07-16T19:22:10.672Z,25.10
2017-07-16T19:24:38.861Z,25.10
2017-07-16T19:27:06.293Z,25.10
2017-07-16T19:29:33.712Z,25.00
2017-07-16T19:32:01.157Z,25.00
2017-07-16T19:34:28.585Z,25.10
2017-07-16T19:36:56.016Z,24.90
2017-07-16T19:39:24.217Z,24.90
2017-07-16T19:41:51.648Z,24.90
2017-07-16T19:44:19.069Z,24.90
2017-07-16T19:46:46.537Z,24.90
2017-07-16T19:49:13.970Z,24.90
2017-07-16T19:51:41.469Z,24.80
2017-07-16T19:54:09.121Z,24.70
2017-07-16T19:56:36.750Z,24.70
2017-07-16T19:59:04.301Z,24.60
2017-07-16T20:01:31.725Z,24.60
2017-07-16T20:03:59.154Z,24.60
2017-07-16T20:06:26.593Z,24.60
2017-07-16T20:08:54.032Z,24.50
2017-07-16T20:11:21.472Z,24.40
2017-07-16T20:13:48.910Z,24.30
2017-07-16T20:16:16.351Z,24.20
2017-07-16T20:18:43.789Z,24.10
2017-07-16T20:21:11.213Z,24.00
2017-07-16T20:23:38.650Z,24.00
2017-07-16T20:26:06.169Z,23.90
2017-07-16T20:28:33.612Z,23.80
2017-07-16T20:31:01.036Z,23.80
2017-07-16T20:33:28.475Z,23.70
2017-07-16T20:35:55.913Z,23.70
2017-07-16T20:38:23.369Z,23.60
2017-07-16T20:40:50.813Z,23.70
2017-07-16T20:43:18.247Z,23.60
2017-07-16T20:45:45.751Z,23.60
2017-07-16T20:48:13.178Z,23.60
2017-07-16T20:50:41.383Z,23.50
2017-07-16T20:53:08.810Z,23.50
2017-07-16T20:55:36.245Z,23.50
2017-07-16T20:58:03.669Z,23.40
2017-07-16T21:00:31.106Z,23.40
2017-07-16T21:02:58.529Z,23.40
2017-07-16T21:05:26.726Z,23.40
2017-07-16T21:07:54.150Z,23.40
2017-07-16T21:10:21.589Z,23.40
2017-07-16T21:12:49.014Z,23.30
2017-07-16T21:15:16.451Z,23.30
2017-07-16T21:17:43.873Z,23.20
2017-07-16T21:20:12.099Z,23.00
2017-07-16T21:22:39.520Z,23.00
2017-07-16T21:25:06.941Z,22.90
2017-07-16T21:27:34.373Z,22.80
2017-07-16T21:30:01.802Z,22.70
2017-07-16T21:32:29.229Z,22.60
2017-07-16T21:34:57.417Z,22.60
2017-07-16T21:37:24.849Z,22.60
2017-07-16T21:39:52.273Z,22.80
2017-07-16T21:42:19.717Z,22.70
2017-07-16T21:44:47.142Z,22.60
2017-07-16T21:47:14.583Z,22.50
2017-07-16T21:49:42.765Z,22.40
2017-07-16T21:52:10.259Z,22.40
2017-07-16T21:54:37.685Z,22.20
2017-07-16T21:57:05.118Z,22.30
2017-07-16T21:59:32.542Z,22.30
2017-07-16T22:01:59.981Z,22.30
2017-07-16T22:04:27.413Z,22.20
2017-07-16T22:06:54.849Z,22.10
2017-07-16T22:09:23.036Z,21.80
2017-07-16T22:11:50.469Z,21.70
2017-07-16T22:14:17.899Z,21.60
2017-07-16T22:16:45.346Z,21.60
2017-07-16T22:19:12.768Z,21.50
2017-07-16T22:21:40.185Z,21.40
2017-07-16T22:24:08.385Z,21.60
2017-07-16T22:26:35.813Z,21.60
2017-07-16T22:29:03.244Z,21.60
2017-07-16T22:31:30.675Z,21.60
2017-07-16T22:33:58.197Z,21.50
2017-07-16T22:36:25.623Z,21.60
2017-07-16T22:38:53.072Z,21.60
2017-07-16T22:41:20.479Z,21.50
2017-07-16T22:43:47.932Z,21.50
2017-07-16T22:46:16.334Z,21.40
2017-07-16T22:48:43.792Z,21.30
2017-07-16T22:51:11.219Z,21.30
2017-07-16T22:53:38.657Z,21.20
2017-07-16T22:56:06.844Z,21.00
2017-07-16T22:58:34.282Z,20.90
2017-07-16T23:01:01.740Z,20.80
2017-07-16T23:03:29.162Z,20.90
2017-07-16T23:05:56.577Z,20.80
2017-07-16T23:08:23.998Z,20.70
2017-07-16T23:10:51.497Z,20.60
2017-07-16T23:13:18.920Z,20.50
2017-07-16T23:15:47.117Z,20.40
2017-07-16T23:18:14.541Z,20.30
2017-07-16T23:20:41.967Z,20.30
2017-07-16T23:23:09.402Z,20.20
2017-07-16T23:25:36.921Z,20.20
2017-07-16T23:28:04.357Z,20.20
2017-07-16T23:30:31.776Z,20.10
2017-07-16T23:32:59.198Z,20.00
2017-07-16T23:35:27.405Z,19.90
2017-07-16T23:37:54.833Z,19.90
2017-07-16T23:40:22.276Z,19.80
2017-07-16T23:42:49.697Z,19.70
2017-07-16T23:45:17.117Z,19.60
2017-07-16T23:47:44.554Z,19.40
2017-07-16T23:50:11.987Z,19.40
2017-07-16T23:52:39.419Z,19.30
2017-07-16T23:55:06.849Z,19.10
2017-07-16T23:57:34.435Z,19.10
